Time;durP1;ratioP1;P1;durP2;ratioP2;P2;SDS_P1;SDS_P2;PMS_P1;PMS_P2;Temp;Humidity;BMP_temperature;BMP_pressure;BME280_temperature;BME280_humidity;BME280_pressure;Samples;Min_cycle;Max_cycle;Signal;HPM_P1;HPM_P2
2023/03/22 00:00:38;;;;;;;2.73;2.20;;;17.50;62.60;18.70;100323.00;;;;5012094;28;20275;-47
2023/03/22 00:03:04;;;;;;;2.53;2.33;;;17.40;62.50;18.60;100316.00;;;;5012140;28;20865;-47
2023/03/22 00:05:30;;;;;;;2.47;2.07;;;17.40;62.50;18.60;100313.00;;;;5012552;28;20207;-46
2023/03/22 00:07:58;;;;;;;2.40;2.20;;;17.40;62.50;18.60;100315.00;;;;5012097;28;20301;-46
2023/03/22 00:10:27;;;;;;;2.50;2.30;;;17.40;62.50;18.60;100309.00;;;;5012087;28;20277;-46
2023/03/22 00:12:53;;;;;;;2.40;2.20;;;17.40;62.50;18.60;100312.00;;;;5012042;28;20171;-46
2023/03/22 00:15:19;;;;;;;2.90;2.27;;;17.40;62.50;18.60;100304.00;;;;5012647;28;20178;-46
2023/03/22 00:17:45;;;;;;;2.67;2.30;;;17.40;62.50;18.60;100318.00;;;;5011184;28;20821;-46
2023/03/22 00:20:10;;;;;;;2.30;2.10;;;17.40;62.50;18.60;100304.00;;;;5012208;28;20656;-46
2023/03/22 00:22:37;;;;;;;2.30;2.10;;;17.30;62.50;18.60;100308.00;;;;5011969;28;20259;-46
2023/03/22 00:25:04;;;;;;;2.30;2.10;;;17.30;62.40;18.60;100307.00;;;;5012009;28;20179;-45
2023/03/22 00:27:30;;;;;;;2.00;1.90;;;17.30;62.40;18.60;100301.00;;;;4992406;28;20176;-46
2023/03/22 00:29:57;;;;;;;2.40;2.20;;;17.40;62.50;18.50;100287.00;;;;5011887;28;20306;-47
2023/03/22 00:32:23;;;;;;;2.30;2.10;;;17.30;62.50;18.50;100295.00;;;;5013288;28;20723;-46
2023/03/22 00:34:48;;;;;;;2.40;2.20;;;17.30;62.50;18.50;100293.00;;;;5012700;28;20210;-46
2023/03/22 00:37:17;;;;;;;2.37;2.10;;;17.30;62.50;18.50;100283.00;;;;5013486;28;20274;-46
2023/03/22 00:39:43;;;;;;;2.23;2.03;;;17.30;62.50;18.50;100282.00;;;;5012171;28;20316;-46
2023/03/22 00:42:09;;;;;;;2.07;1.97;;;17.30;62.40;18.50;100277.00;;;;5011709;28;20266;-47
2023/03/22 00:44:35;;;;;;;2.30;1.90;;;17.30;62.50;18.50;100273.00;;;;5011915;28;20232;-47
2023/03/22 00:47:00;;;;;;;1.97;1.87;;;17.30;62.50;18.50;100268.00;;;;5012062;28;20202;-47
2023/03/22 00:49:26;;;;;;;2.20;2.00;;;17.30;62.50;18.50;100266.00;;;;5011357;28;20210;-47
2023/03/22 00:51:53;;;;;;;2.00;1.90;;;17.20;62.40;18.50;100257.00;;;;5009972;28;20234;-47
2023/03/22 00:54:19;;;;;;;2.37;2.17;;;17.20;62.40;18.50;100260.00;;;;5009925;28;20187;-45
2023/03/22 00:56:45;;;;;;;2.30;2.10;;;17.20;62.40;18.50;100255.00;;;;5011486;28;20188;-47
2023/03/22 00:59:12;;;;;;;2.10;2.00;;;17.20;62.30;18.50;100248.00;;;;5011061;28;20214;-46
2023/03/22 01:01:38;;;;;;;2.10;2.00;;;17.30;62.50;18.50;100243.00;;;;5011084;28;20262;-46
2023/03/22 01:04:04;;;;;;;2.10;1.90;;;17.20;62.50;18.50;100244.00;;;;5009381;28;20286;-46
2023/03/22 01:06:31;;;;;;;1.90;1.80;;;17.20;62.50;18.40;100242.00;;;;5010612;28;20183;-47
2023/03/22 01:08:57;;;;;;;2.30;2.10;;;17.20;62.50;18.40;100246.00;;;;5010973;28;20210;-46
2023/03/22 01:11:23;;;;;;;2.17;1.97;;;17.20;62.50;18.40;100239.00;;;;5010925;28;20236;-47
2023/03/22 01:13:48;;;;;;;2.07;1.90;;;17.20;62.50;18.40;100238.00;;;;5010847;28;20747;-46
2023/03/22 01:16:15;;;;;;;2.13;1.90;;;17.20;62.50;18.40;100238.00;;;;5011019;28;20245;-45
2023/03/22 01:18:40;;;;;;;2.10;2.00;;;17.20;62.50;18.40;100236.00;;;;5009764;28;20275;-46
2023/03/22 01:21:06;;;;;;;2.23;2.00;;;17.10;62.50;18.40;100238.00;;;;5010906;28;20199;-48
2023/03/22 01:23:32;;;;;;;1.90;1.80;;;17.20;62.50;18.40;100226.00;;;;5010972;28;20188;-46
2023/03/22 01:25:58;;;;;;;2.83;2.10;;;17.10;62.40;18.40;100231.00;;;;5011104;28;20181;-46
2023/03/22 01:28:24;;;;;;;2.33;2.10;;;17.20;62.60;18.40;100237.00;;;;5010971;28;20190;-46
2023/03/22 01:30:50;;;;;;;2.30;2.10;;;17.20;62.50;18.40;100222.00;;;;5010566;28;20269;-46
2023/03/22 01:33:15;;;;;;;2.27;2.07;;;17.10;62.50;18.40;100219.00;;;;5008599;28;20177;-46
2023/03/22 01:35:41;;;;;;;2.00;1.90;;;17.10;62.50;18.40;100223.00;;;;5010545;28;20261;-46
2023/03/22 01:38:07;;;;;;;2.20;2.00;;;17.10;62.50;18.30;100224.00;;;;5010282;28;20190;-46
2023/03/22 01:40:33;;;;;;;2.23;2.03;;;17.10;62.50;18.30;100216.00;;;;5010274;28;20199;-46
2023/03/22 01:42:59;;;;;;;2.30;2.10;;;17.10;62.50;18.30;100213.00;;;;5010268;28;20194;-46
2023/03/22 01:45:34;;;;;;;2.10;1.90;;;17.10;63.40;18.30;100213.00;;;;5010466;28;20266;-46
2023/03/22 01:48:08;;;;;;;2.17;2.00;;;17.10;62.60;18.30;100205.00;;;;5010385;28;20178;-46
2023/03/22 01:50:36;;;;;;;2.00;1.90;;;17.10;62.60;18.30;100217.00;;;;5010417;28;20203;-46
2023/03/22 01:53:03;;;;;;;2.00;1.90;;;17.10;62.60;18.30;100202.00;;;;5009556;28;20199;-46
2023/03/22 01:55:29;;;;;;;2.10;1.90;;;17.10;62.60;18.30;100202.00;;;;5009799;28;20178;-47
2023/03/22 01:57:55;;;;;;;2.00;1.90;;;17.10;62.60;18.30;100205.00;;;;5009526;28;20178;-46
2023/03/22 02:00:21;;;;;;;1.93;1.83;;;17.00;62.50;18.30;100191.00;;;;5009012;28;20224;-46
2023/03/22 02:02:49;;;;;;;2.33;1.90;;;17.00;62.50;18.30;100193.00;;;;5010417;28;20259;-47
2023/03/22 02:05:15;;;;;;;2.00;1.90;;;17.00;62.50;18.30;100180.00;;;;5009424;28;20187;-45
2023/03/22 02:07:41;;;;;;;1.90;1.80;;;17.00;62.60;18.00;100184.00;;;;5010033;28;20190;-46
2023/03/22 02:10:16;;;;;;;1.83;1.73;;;17.00;62.50;18.30;100173.00;;;;5010518;28;20193;-46
2023/03/22 02:13:06;;;;;;;2.00;1.90;;;17.00;62.50;18.30;100177.00;;;;5009817;28;20220;-46
2023/03/22 02:15:56;;;;;;;1.90;1.80;;;17.00;62.60;18.20;100177.00;;;;5009732;28;20184;-46
2023/03/22 02:19:22;;;;;;;2.67;2.00;;;17.00;62.60;18.20;100172.00;;;;5008518;28;20204;-46
2023/03/22 02:22:20;;;;;;;2.00;1.90;;;17.00;62.60;18.20;100165.00;;;;5009450;28;20234;-46
2023/03/22 02:25:29;;;;;;;1.90;1.80;;;17.00;62.80;18.20;100171.00;;;;5008856;28;20192;-46
2023/03/22 02:28:45;;;;;;;2.17;1.93;;;16.90;62.70;18.20;100165.00;;;;5010089;28;20168;-46
2023/03/22 02:31:32;;;;;;;1.90;1.80;;;17.00;62.80;18.10;100161.00;;;;5009297;28;20186;-46
2023/03/22 02:34:31;;;;;;;1.93;1.80;;;17.00;62.80;18.10;100160.00;;;;5009649;28;20179;-46
2023/03/22 02:37:48;;;;;;;2.13;1.97;;;16.90;62.70;18.10;100164.00;;;;5009526;28;20594;-46
2023/03/22 02:40:31;;;;;;;1.83;1.73;;;16.90;62.80;18.10;100166.00;;;;5007355;28;20226;-47
2023/03/22 02:43:40;;;;;;;2.10;2.00;;;16.90;62.80;18.10;100158.00;;;;5008265;28;20406;-46
2023/03/22 02:46:20;;;;;;;1.77;1.67;;;16.90;62.80;18.10;100158.00;;;;5008322;28;20200;-47
2023/03/22 02:48:54;;;;;;;1.90;1.80;;;16.90;62.80;18.10;100159.00;;;;5008385;28;20657;-47
2023/03/22 02:51:28;;;;;;;1.87;1.77;;;16.90;62.80;18.10;100140.00;;;;5008303;28;20621;-47
2023/03/22 02:54:05;;;;;;;2.20;2.00;;;16.90;62.80;18.10;100142.00;;;;5008379;28;20181;-46
2023/03/22 02:56:38;;;;;;;2.10;1.90;;;16.90;62.80;18.10;100134.00;;;;5008539;28;20681;-46
2023/03/22 02:59:05;;;;;;;1.70;1.60;;;16.80;62.70;18.10;100136.00;;;;5007990;28;20680;-46
2023/03/22 03:01:38;;;;;;;2.00;1.80;;;16.80;62.70;18.00;100116.00;;;;5008279;28;20619;-46
2023/03/22 03:04:08;;;;;;;1.80;1.70;;;16.90;62.80;18.00;100129.00;;;;5008596;28;20178;-46
2023/03/22 03:06:38;;;;;;;1.70;1.60;;;16.90;62.90;18.00;100125.00;;;;5008179;28;20240;-46
2023/03/22 03:09:04;;;;;;;1.90;1.80;;;16.90;62.80;18.10;100127.00;;;;5008100;28;20519;-46
2023/03/22 03:11:30;;;;;;;1.80;1.70;;;16.80;62.70;18.00;100122.00;;;;5008070;28;20244;-47
2023/03/22 03:13:56;;;;;;;1.90;1.80;;;16.80;62.70;18.00;100122.00;;;;5007735;28;20726;-47
2023/03/22 03:16:25;;;;;;;1.83;1.73;;;16.80;62.70;18.00;100116.00;;;;5008985;28;20266;-47
2023/03/22 03:19:24;;;;;;;1.80;1.70;;;16.80;62.70;18.00;100120.00;;;;5007717;28;20784;-46
2023/03/22 03:22:23;;;;;;;1.80;1.70;;;16.80;62.80;18.00;100123.00;;;;5008430;28;20478;-47
2023/03/22 03:25:04;;;;;;;2.00;1.90;;;16.80;62.70;18.00;100100.00;;;;5010528;28;20250;-46
2023/03/22 03:27:37;;;;;;;2.03;1.83;;;16.80;62.70;18.00;100123.00;;;;5013305;28;20174;-46
2023/03/22 03:30:13;;;;;;;1.97;1.87;;;16.80;62.70;18.00;100129.00;;;;5012572;28;20209;-46
2023/03/22 03:32:52;;;;;;;1.80;1.70;;;16.80;62.70;18.00;100123.00;;;;5008529;28;20182;-46
2023/03/22 03:35:26;;;;;;;1.90;1.80;;;16.80;62.80;18.00;100119.00;;;;5008147;28;20191;-47
2023/03/22 03:38:17;;;;;;;1.80;1.70;;;16.80;62.80;18.00;100120.00;;;;5008916;28;20180;-46
2023/03/22 03:41:02;;;;;;;1.70;1.60;;;16.70;62.70;18.00;100118.00;;;;5008753;28;20690;-46
2023/03/22 03:43:28;;;;;;;1.80;1.70;;;16.70;62.60;17.90;100111.00;;;;5008333;28;20261;-46
2023/03/22 03:45:53;;;;;;;1.90;1.80;;;16.70;62.70;18.00;100116.00;;;;5009239;28;20251;-47
2023/03/22 03:48:23;;;;;;;1.87;1.77;;;16.80;62.70;17.90;100097.00;;;;5007489;28;20891;-46
2023/03/22 03:50:50;;;;;;;1.83;1.70;;;16.80;62.80;17.90;100108.00;;;;5007596;28;20734;-46
2023/03/22 03:53:16;;;;;;;2.13;1.93;;;16.70;62.80;17.90;100109.00;;;;5007482;28;20272;-46
2023/03/22 03:55:42;;;;;;;1.90;1.80;;;16.80;63.30;17.90;100099.00;;;;5010241;28;20384;-46
2023/03/22 03:58:08;;;;;;;2.03;1.83;;;16.80;63.30;17.90;100119.00;;;;5012471;28;20605;-47
2023/03/22 04:00:37;;;;;;;2.73;1.80;;;16.70;63.20;17.90;100117.00;;;;5010949;28;20191;-47
2023/03/22 04:03:03;;;;;;;1.90;1.80;;;16.70;63.20;17.90;100122.00;;;;5012060;28;20176;-46
2023/03/22 04:05:29;;;;;;;2.07;1.87;;;16.80;63.30;17.90;100126.00;;;;5011128;28;20173;-46
2023/03/22 04:07:54;;;;;;;1.80;1.70;;;16.80;63.30;17.90;100120.00;;;;5012233;28;20187;-46
2023/03/22 04:10:20;;;;;;;1.77;1.67;;;16.80;63.30;17.90;100117.00;;;;5012351;28;20210;-46
2023/03/22 04:12:46;;;;;;;1.70;1.60;;;16.70;63.20;17.90;100119.00;;;;5012525;28;20208;-46
2023/03/22 04:15:12;;;;;;;1.80;1.70;;;16.70;63.10;17.90;100130.00;;;;5012479;28;20185;-46
2023/03/22 04:17:38;;;;;;;1.90;1.80;;;16.70;63.20;17.90;100133.00;;;;5012577;28;20191;-47
2023/03/22 04:20:06;;;;;;;1.80;1.70;;;16.70;63.20;17.90;100124.00;;;;5010717;28;20292;-46
2023/03/22 04:22:37;;;;;;;1.90;1.80;;;16.70;63.20;17.90;100128.00;;;;5012088;28;20263;-46
2023/03/22 04:25:04;;;;;;;2.13;2.00;;;16.70;63.20;17.90;100120.00;;;;5011730;28;20232;-46
2023/03/22 04:27:30;;;;;;;1.80;1.70;;;16.70;63.20;17.80;100115.00;;;;5008448;28;20196;-46
2023/03/22 04:29:56;;;;;;;2.30;1.90;;;16.70;63.30;17.80;100122.00;;;;5011944;28;20214;-46
2023/03/22 04:32:22;;;;;;;6.33;1.73;;;16.70;63.40;17.80;100122.00;;;;5012040;28;20503;-47
2023/03/22 04:34:49;;;;;;;2.13;1.73;;;16.70;63.20;17.90;100118.00;;;;5012602;28;20180;-46
2023/03/22 04:37:15;;;;;;;4.43;2.00;;;16.70;63.20;17.80;100125.00;;;;5012019;28;20186;-46
2023/03/22 04:39:41;;;;;;;2.00;1.80;;;16.60;63.10;17.80;100118.00;;;;5011764;28;20221;-46
2023/03/22 04:42:07;;;;;;;1.97;1.77;;;16.60;63.10;17.80;100111.00;;;;5011767;28;20178;-46
2023/03/22 04:44:33;;;;;;;5.07;2.00;;;16.60;63.10;17.80;100116.00;;;;5010657;28;20601;-46
2023/03/22 04:46:58;;;;;;;3.73;1.90;;;16.60;63.10;17.80;100117.00;;;;5013086;28;20186;-47
2023/03/22 04:49:25;;;;;;;3.30;2.10;;;16.60;63.10;17.80;100121.00;;;;5012448;28;20204;-46
2023/03/22 04:51:52;;;;;;;2.83;2.00;;;16.60;63.10;17.80;100106.00;;;;5011369;28;20233;-47
2023/03/22 04:54:18;;;;;;;2.10;1.90;;;16.60;63.00;17.80;100092.00;;;;5012371;28;20372;-47
2023/03/22 04:56:44;;;;;;;3.00;1.90;;;16.60;63.00;17.80;100093.00;;;;5012259;28;20191;-46
2023/03/22 04:59:10;;;;;;;3.27;2.03;;;16.60;62.90;17.80;100084.00;;;;5012397;28;20203;-47
2023/03/22 05:01:36;;;;;;;2.20;2.00;;;16.60;62.90;17.80;100090.00;;;;5012080;28;20187;-47
2023/03/22 05:04:02;;;;;;;3.43;2.30;;;16.60;62.90;17.80;100091.00;;;;5014217;28;20654;-46
2023/03/22 05:06:31;;;;;;;2.20;1.90;;;16.50;62.60;17.80;100106.00;;;;5012443;28;20274;-45
2023/03/22 05:08:58;;;;;;;2.40;2.20;;;16.50;62.60;17.70;100099.00;;;;5010837;28;20184;-45
2023/03/22 05:11:26;;;;;;;5.43;2.10;;;16.50;62.60;17.70;100097.00;;;;5011486;28;20189;-46
2023/03/22 05:13:55;;;;;;;3.00;2.20;;;16.50;62.50;17.70;100106.00;;;;5012354;28;20214;-46
2023/03/22 05:16:21;;;;;;;2.50;2.30;;;16.50;62.60;17.70;100097.00;;;;5011055;28;20273;-45
2023/03/22 05:18:48;;;;;;;2.43;2.00;;;16.50;62.60;17.70;100108.00;;;;5012194;28;20288;-45
2023/03/22 05:21:20;;;;;;;6.40;2.20;;;16.50;62.50;17.70;100102.00;;;;5011981;28;20258;-46
2023/03/22 05:23:46;;;;;;;4.37;2.27;;;16.50;62.50;17.70;100095.00;;;;5011753;28;20263;-46
2023/03/22 05:26:14;;;;;;;3.17;2.30;;;16.50;62.50;17.70;100093.00;;;;5012145;28;20226;-45
2023/03/22 05:28:41;;;;;;;3.90;2.50;;;16.50;62.50;17.70;100091.00;;;;5011892;28;20245;-46
2023/03/22 05:31:09;;;;;;;6.90;2.73;;;16.50;62.50;17.70;100094.00;;;;5010424;28;20687;-46
2023/03/22 05:33:34;;;;;;;9.27;2.83;;;16.50;62.50;17.70;100095.00;;;;5011330;28;20690;-46
2023/03/22 05:36:00;;;;;;;7.90;3.20;;;16.40;62.30;17.60;100098.00;;;;5011867;28;20180;-45
2023/03/22 05:38:26;;;;;;;8.57;3.20;;;16.40;62.50;17.60;100097.00;;;;5011678;28;20225;-46
2023/03/22 05:40:52;;;;;;;7.90;3.40;;;16.40;62.60;17.60;100093.00;;;;5012158;28;20727;-46
2023/03/22 05:43:18;;;;;;;7.43;2.93;;;16.40;62.80;17.60;100094.00;;;;5011971;28;20208;-45
2023/03/22 05:45:45;;;;;;;7.17;3.00;;;16.40;62.70;17.60;100093.00;;;;5011698;28;20535;-46
2023/03/22 05:48:11;;;;;;;12.43;3.00;;;16.40;62.80;17.60;100107.00;;;;5007173;28;20174;-45
2023/03/22 05:50:36;;;;;;;6.73;2.77;;;16.40;62.80;17.60;100104.00;;;;5008908;28;20714;-46
2023/03/22 05:53:02;;;;;;;8.37;3.00;;;16.40;62.80;17.60;100101.00;;;;5010774;28;20177;-48
2023/03/22 05:55:29;;;;;;;6.10;3.30;;;16.40;62.90;17.60;100109.00;;;;5005246;28;20188;-46
2023/03/22 05:57:55;;;;;;;6.10;3.10;;;16.40;62.90;17.60;100109.00;;;;5003528;28;20176;-47
2023/03/22 06:00:22;;;;;;;6.50;3.07;;;16.40;62.90;17.60;100111.00;;;;5008333;28;20223;-46
2023/03/22 06:02:48;;;;;;;5.33;2.60;;;16.40;62.90;17.60;100093.00;;;;5009661;28;20173;-47
2023/03/22 06:05:15;;;;;;;6.23;3.17;;;16.40;62.90;17.50;100090.00;;;;5009746;28;20223;-47
2023/03/22 06:07:41;;;;;;;9.67;2.90;;;16.40;62.90;17.60;100096.00;;;;5009388;28;20193;-46
2023/03/22 06:10:08;;;;;;;4.93;2.70;;;16.40;62.90;17.60;100108.00;;;;5009964;28;20198;-46
2023/03/22 06:12:34;;;;;;;6.33;2.40;;;16.40;62.90;17.50;100096.00;;;;5008324;28;20183;-46
2023/03/22 06:15:00;;;;;;;5.20;2.87;;;16.40;62.90;17.50;100093.00;;;;5009822;28;20180;-46
2023/03/22 06:17:26;;;;;;;4.37;2.60;;;16.40;62.90;17.50;100087.00;;;;5009995;28;20184;-47
2023/03/22 06:19:53;;;;;;;3.60;2.43;;;16.30;62.70;17.50;100095.00;;;;5008504;28;20200;-47
2023/03/22 06:22:19;;;;;;;3.83;2.60;;;16.40;62.90;17.50;100094.00;;;;5009975;28;20257;-46
2023/03/22 06:24:44;;;;;;;4.60;2.50;;;16.30;62.70;17.50;100092.00;;;;5009902;28;20317;-46
2023/03/22 06:27:10;;;;;;;5.10;2.80;;;16.30;62.70;17.50;100096.00;;;;4989582;28;20307;-46
2023/03/22 06:29:36;;;;;;;5.37;2.50;;;16.30;62.70;17.50;100089.00;;;;4990336;28;20305;-46
2023/03/22 06:32:02;;;;;;;5.13;2.60;;;16.30;62.70;17.50;100104.00;;;;5009381;28;20249;-47
2023/03/22 06:34:28;;;;;;;4.43;2.77;;;16.30;62.70;17.50;100107.00;;;;5009235;28;20206;-46
2023/03/22 06:36:54;;;;;;;4.33;2.87;;;16.30;62.60;17.50;100096.00;;;;5009449;28;20172;-46
2023/03/22 06:39:20;;;;;;;3.67;2.40;;;16.30;62.60;17.50;100091.00;;;;5008388;28;20210;-51
2023/03/22 06:41:46;;;;;;;4.37;2.40;;;16.30;62.60;17.50;100098.00;;;;5009379;28;20179;-46
2023/03/22 06:44:12;;;;;;;3.33;2.40;;;16.30;62.60;17.50;100095.00;;;;5007904;28;20177;-47
2023/03/22 06:46:37;;;;;;;5.00;2.70;;;16.30;62.60;17.50;100099.00;;;;5009509;28;20259;-46
2023/03/22 06:49:03;;;;;;;4.20;2.50;;;16.30;62.60;17.40;100099.00;;;;5009179;28;20359;-46
2023/03/22 06:51:29;;;;;;;4.43;2.43;;;16.20;62.50;17.40;100098.00;;;;5009058;28;20187;-47
2023/03/22 06:53:55;;;;;;;2.77;2.40;;;16.20;62.50;17.40;100104.00;;;;5008494;28;20176;-46
2023/03/22 06:56:21;;;;;;;4.77;2.20;;;16.30;62.60;17.40;100110.00;;;;5009820;28;20785;-47
2023/03/22 06:58:47;;;;;;;4.33;2.50;;;16.20;62.50;17.40;100097.00;;;;5008261;28;20318;-46
2023/03/22 07:01:13;;;;;;;2.77;2.20;;;16.20;62.50;17.40;100099.00;;;;5009217;28;20184;-46
2023/03/22 07:03:39;;;;;;;2.90;2.27;;;16.20;62.50;17.40;100095.00;;;;5008805;28;20182;-47
2023/03/22 07:06:07;;;;;;;3.20;2.43;;;16.20;62.50;17.40;100097.00;;;;5008171;28;20177;-46
2023/03/22 07:08:33;;;;;;;3.70;2.40;;;16.20;62.50;17.40;100097.00;;;;5006152;28;20184;-47
2023/03/22 07:10:59;;;;;;;2.73;2.23;;;16.20;62.40;17.40;100088.00;;;;5007200;28;20195;-47
2023/03/22 07:13:25;;;;;;;4.17;2.27;;;16.20;62.50;17.40;100086.00;;;;5007492;28;20565;-46
2023/03/22 07:16:00;;;;;;;2.30;2.10;;;16.20;62.50;17.40;100088.00;;;;5009230;28;20188;-47
2023/03/22 07:18:27;;;;;;;3.57;2.30;;;16.20;62.50;17.40;100087.00;;;;5008844;28;20271;-46
2023/03/22 07:20:53;;;;;;;4.40;2.20;;;16.20;62.50;17.40;100081.00;;;;5008088;28;20195;-46
2023/03/22 07:23:19;;;;;;;2.73;2.30;;;16.20;62.50;17.40;100079.00;;;;5007982;28;20181;-48
2023/03/22 07:25:45;;;;;;;3.27;2.30;;;16.20;62.50;17.30;100085.00;;;;5009100;28;20198;-47
2023/03/22 07:28:11;;;;;;;5.37;2.20;;;16.20;62.70;17.30;100082.00;;;;5009391;28;20655;-47
2023/03/22 07:30:37;;;;;;;3.17;2.40;;;16.20;62.60;17.30;100069.00;;;;5010123;28;20253;-46
2023/03/22 07:33:07;;;;;;;3.67;2.00;;;16.10;62.40;17.30;100093.00;;;;5010802;28;20595;-46
2023/03/22 07:35:33;;;;;;;2.50;2.30;;;16.10;62.40;17.30;100064.00;;;;5015481;28;20809;-46
2023/03/22 07:38:00;;;;;;;2.50;2.10;;;16.10;62.30;17.30;100064.00;;;;5017412;28;20173;-46
2023/03/22 07:40:26;;;;;;;4.90;2.30;;;16.10;62.40;17.30;100075.00;;;;5017752;28;20231;-47
2023/03/22 07:42:52;;;;;;;2.70;2.00;;;16.20;62.50;17.30;100070.00;;;;5014826;28;20172;-47
2023/03/22 07:45:18;;;;;;;2.70;2.17;;;16.10;62.40;17.30;100060.00;;;;5014083;28;20692;-46
2023/03/22 07:47:44;;;;;;;2.57;2.10;;;16.10;62.40;17.30;100061.00;;;;5013004;28;20171;-46
2023/03/22 07:50:13;;;;;;;3.37;2.30;;;16.10;62.40;17.30;100050.00;;;;5011183;28;20203;-46
2023/03/22 07:52:40;;;;;;;2.67;2.10;;;16.10;62.40;17.30;100060.00;;;;5011370;28;20189;-46
2023/03/22 07:55:06;;;;;;;3.27;2.07;;;16.20;62.50;17.30;100055.00;;;;5012443;28;20247;-46
2023/03/22 07:57:32;;;;;;;4.13;2.30;;;16.10;62.40;17.30;100058.00;;;;5012664;28;20251;-46
2023/03/22 07:59:58;;;;;;;3.63;2.30;;;16.20;62.50;17.30;100057.00;;;;5012050;28;20205;-46
2023/03/22 08:02:23;;;;;;;3.40;2.20;;;16.10;62.40;17.30;100051.00;;;;5005906;28;20210;-46
2023/03/22 08:04:51;;;;;;;5.60;2.30;;;16.10;62.80;17.30;100060.00;;;;5004763;28;20279;-46
2023/03/22 08:07:19;;;;;;;3.43;2.20;;;16.10;62.70;17.30;100063.00;;;;5004702;28;20176;-46
2023/03/22 08:09:45;;;;;;;3.87;2.10;;;16.10;62.80;17.30;100068.00;;;;5011143;28;20200;-47
2023/03/22 08:12:11;;;;;;;3.20;2.27;;;16.10;62.70;17.30;100060.00;;;;5011949;28;20173;-47
2023/03/22 08:14:37;;;;;;;5.60;2.47;;;16.10;62.80;17.30;100064.00;;;;5007335;28;20211;-46
2023/03/22 08:17:05;;;;;;;6.57;2.50;;;16.10;63.90;17.30;100050.00;;;;5010757;28;20263;-47
2023/03/22 08:19:32;;;;;;;3.93;2.47;;;16.10;63.00;17.30;100060.00;;;;5010586;28;20612;-46
2023/03/22 08:21:58;;;;;;;4.50;2.27;;;16.10;63.00;17.30;100060.00;;;;5010490;28;20175;-45
2023/03/22 08:24:25;;;;;;;4.43;2.40;;;16.20;63.10;17.30;100050.00;;;;5011432;28;20198;-46
2023/03/22 08:26:51;;;;;;;6.87;2.53;;;16.20;63.10;17.30;100054.00;;;;5008516;28;20195;-46
2023/03/22 08:29:17;;;;;;;4.53;2.30;;;16.10;62.90;17.30;100050.00;;;;5009148;28;20196;-46
2023/03/22 08:31:43;;;;;;;3.50;2.10;;;16.10;62.90;17.30;100057.00;;;;5011012;28;20576;-47
2023/03/22 08:34:09;;;;;;;4.47;2.10;;;16.10;62.90;17.30;100053.00;;;;5010108;28;20192;-45
2023/03/22 08:36:36;;;;;;;3.77;2.07;;;16.20;63.10;17.30;100055.00;;;;5011227;28;20181;-45
2023/03/22 08:39:02;;;;;;;3.50;2.30;;;16.20;63.10;17.30;100055.00;;;;5010281;28;20259;-47
2023/03/22 08:41:27;;;;;;;3.67;2.20;;;16.20;63.20;17.30;100054.00;;;;5010164;28;20183;-46
2023/03/22 08:43:53;;;;;;;3.57;2.30;;;16.10;63.10;17.30;100057.00;;;;5011597;28;20173;-47
2023/03/22 08:46:19;;;;;;;4.23;2.17;;;16.10;63.40;17.30;100065.00;;;;5010577;28;20276;-46
2023/03/22 08:48:49;;;;;;;3.70;2.20;;;16.10;63.40;17.30;100067.00;;;;5012335;28;20531;-46
2023/03/22 08:51:20;;;;;;;4.97;2.27;;;16.10;63.70;17.30;100066.00;;;;5012286;28;20243;-47
2023/03/22 08:53:47;;;;;;;7.47;2.47;;;16.20;64.00;17.30;100055.00;;;;5009538;28;20206;-46
2023/03/22 08:56:18;;;;;;;6.70;2.50;;;16.10;64.00;17.30;100058.00;;;;5011971;28;20171;-47
2023/03/22 08:58:45;;;;;;;6.27;2.53;;;16.20;64.40;17.30;100059.00;;;;5011750;28;20219;-46
2023/03/22 09:01:12;;;;;;;6.50;2.60;;;16.20;64.40;17.30;100061.00;;;;5007312;28;20204;-46
2023/03/22 09:03:38;;;;;;;4.83;2.43;;;16.10;64.40;17.30;100056.00;;;;5005615;28;20203;-50
2023/03/22 09:06:05;;;;;;;5.17;2.20;;;16.20;64.50;17.30;100063.00;;;;5005248;28;20663;-47
2023/03/22 09:08:34;;;;;;;6.97;2.70;;;16.20;64.50;17.30;100046.00;;;;5003758;28;20193;-46
2023/03/22 09:11:00;;;;;;;4.03;2.27;;;16.20;64.60;17.40;100066.00;;;;5005389;28;20202;-47
2023/03/22 09:13:27;;;;;;;5.77;2.30;;;16.20;64.70;17.40;100063.00;;;;5011199;28;20183;-46
2023/03/22 09:15:52;;;;;;;2.93;2.03;;;16.20;65.10;17.40;100064.00;;;;5011520;28;20307;-46
2023/03/22 09:18:18;;;;;;;4.70;2.00;;;16.20;64.90;17.40;100070.00;;;;5011321;28;20710;-47
2023/03/22 09:20:44;;;;;;;4.07;2.13;;;16.20;65.00;17.40;100069.00;;;;5011138;28;20279;-47
2023/03/22 09:23:11;;;;;;;3.43;2.17;;;16.20;65.00;17.40;100058.00;;;;5010879;28;20232;-47
2023/03/22 09:25:37;;;;;;;3.37;2.00;;;16.20;65.30;17.40;100062.00;;;;5010988;28;20660;-46
2023/03/22 09:28:03;;;;;;;4.47;2.00;;;16.20;65.30;17.40;100051.00;;;;5011165;28;20234;-46
2023/03/22 09:30:29;;;;;;;3.67;2.10;;;16.20;65.30;17.40;100066.00;;;;5009802;28;20231;-47
2023/03/22 09:32:55;;;;;;;4.07;2.30;;;16.20;65.40;17.40;100062.00;;;;5011011;28;20608;-46
2023/03/22 09:35:21;;;;;;;3.33;1.90;;;16.20;65.30;17.40;100055.00;;;;5011851;28;20193;-46
2023/03/22 09:37:48;;;;;;;3.33;1.90;;;16.20;65.80;17.40;100049.00;;;;5011317;28;20183;-46
2023/03/22 09:40:14;;;;;;;4.30;2.17;;;16.30;66.30;17.40;100052.00;;;;5011184;28;20312;-46
2023/03/22 09:42:44;;;;;;;4.20;2.20;;;16.30;66.40;17.40;100045.00;;;;5009431;28;20196;-46
2023/03/22 09:45:16;;;;;;;5.13;2.30;;;16.30;66.30;17.40;100059.00;;;;5009954;28;20168;-47
2023/03/22 09:47:45;;;;;;;3.70;2.10;;;16.30;66.10;17.50;100051.00;;;;5008992;28;20231;-47
2023/03/22 09:50:20;;;;;;;2.90;2.00;;;16.30;65.60;17.40;100040.00;;;;5009838;28;20195;-47
2023/03/22 09:52:46;;;;;;;3.60;2.20;;;16.30;65.50;17.50;100036.00;;;;5008324;28;20322;-47
2023/03/22 09:55:28;;;;;;;3.00;2.00;;;16.30;65.50;17.40;100023.00;;;;5009045;28;20718;-47
2023/03/22 09:58:16;;;;;;;2.53;2.10;;;16.30;65.50;17.50;100035.00;;;;5009702;28;20262;-46
2023/03/22 10:00:42;;;;;;;4.23;2.00;;;16.30;65.50;17.40;100047.00;;;;5009023;28;20294;-46
2023/03/22 10:04:02;;;;;;;4.63;2.07;;;16.30;65.50;17.50;100047.00;;;;5008937;28;20169;-46
2023/03/22 10:06:27;;;;;;;4.43;2.13;;;16.30;65.40;17.40;100040.00;;;;5009204;28;20690;-47
2023/03/22 10:09:27;;;;;;;9.83;2.30;;;16.30;66.20;17.40;100044.00;;;;5009021;28;20175;-47
2023/03/22 10:12:06;;;;;;;15.20;3.13;;;16.30;66.40;17.50;100037.00;;;;5009348;28;20172;-45
2023/03/22 10:14:39;;;;;;;12.13;2.67;;;16.40;67.60;17.50;100038.00;;;;5009976;28;20191;-47
2023/03/22 10:17:13;;;;;;;10.50;2.80;;;16.40;68.00;17.50;100035.00;;;;5011882;28;20172;-47
2023/03/22 10:19:53;;;;;;;9.97;2.53;;;16.60;68.70;17.60;100039.00;;;;5010803;28;20208;-46
2023/03/22 10:22:23;;;;;;;9.80;2.73;;;16.60;68.90;17.60;100028.00;;;;5008398;28;20263;-47
2023/03/22 10:24:50;;;;;;;11.80;3.53;;;16.70;68.70;17.60;100026.00;;;;4975807;28;20186;-47
2023/03/22 10:27:18;;;;;;;11.10;2.70;;;16.80;68.60;17.70;100035.00;;;;5009494;28;20277;-46
2023/03/22 10:30:10;;;;;;;8.10;2.67;;;16.80;68.60;17.80;100033.00;;;;5010246;28;20227;-46
2023/03/22 10:33:00;;;;;;;7.00;2.47;;;16.90;68.50;17.80;100039.00;;;;5009070;28;20183;-46
2023/03/22 10:35:26;;;;;;;6.60;2.40;;;16.90;68.20;17.90;100048.00;;;;5008940;28;20177;-47
2023/03/22 10:37:54;;;;;;;7.63;2.60;;;17.00;68.10;17.90;100029.00;;;;5008783;28;20183;-46
2023/03/22 10:40:25;;;;;;;6.43;2.47;;;17.10;68.00;18.00;100032.00;;;;5008764;28;20237;-46
2023/03/22 10:42:59;;;;;;;8.70;2.40;;;17.10;67.80;18.10;100032.00;;;;5008820;28;20187;-46
2023/03/22 10:45:25;;;;;;;5.20;2.20;;;17.10;67.70;18.10;100040.00;;;;5009088;28;20182;-47
2023/03/22 10:47:58;;;;;;;4.13;2.23;;;17.20;67.70;18.20;100029.00;;;;5008997;28;20178;-46
2023/03/22 10:50:35;;;;;;;7.73;2.30;;;17.20;67.60;18.20;100027.00;;;;5008832;28;20293;-47
2023/03/22 10:53:38;;;;;;;8.53;2.47;;;17.20;67.50;18.30;100044.00;;;;5009189;28;20179;-47
2023/03/22 10:56:05;;;;;;;4.50;2.17;;;17.30;67.50;18.30;100035.00;;;;5009161;28;20798;-47
2023/03/22 10:58:32;;;;;;;6.67;2.13;;;17.30;67.40;18.30;100029.00;;;;5008599;28;20182;-47